Etusivu
METAR-TAF:

METAR-TAF

Lentoasemat :

Waukegan Regional Airport

Waukegan, Illinois, Yhdysvallat

Leveyspiiri: 42-25N, Pituuspiiri: 087-52W, korkeus merenpinnasta: 222 m

Tämänhetkinen sää

Tämä raportti tehtiin 39 minuuttia sitten, kello 11.55 UTC
Tuuli 4 kn pohjoisesta
Lämpötila 1°C
Kosteus 69%
Ilmanpaine 1013 hPa
Näkyvyys: 16.1 km
selkeää

METAR: KUGN 241155Z 01004KT 10SM CLR 01/M04 A2991 RMK AO2 SLP137 T00111044 10039 20011 51004

Aika: 06:34 (12:34 UTC)


TAF: puuttuu

Säähavainnot ja -ennusteet yli 4000 lentoasemalta (METAR- ja TAF-raportit).

Käytössä olevat sääasemat on merkitty karttaan keltaisilla ja punaisilla pisteillä.

Aseta hiiri pisteen päälle nähdäksesi sääaseman nimen.

Klikkaa sitten nähdäksesi säähavainnot ja -ennusteet.

Kartan vaihtaminen: klikkaa mustalla rastilla varustettuja vihreitä pisteitä, niin voit zoomata sisään; viivalla varustettua vihreää pistettä, niin voit zoomata ulos tai vihreitä nuolia, niin pääset viereisille kartoille.


METAR-TAF: